Evelyn Doris — WDD5558 — position and weather

sailwx.info

Track history (hours):
 
Tides and Currents Weather Stations Pressure Air Temp Water Temp Dewpoint Dewpoint Depression Visibility Wind Speed Wind Dir Waves Ship Positions

Evelyn Doris

Owner: Intracoastal Marine, Inc., Coinjock, NC. More information available from US FCC via Universal Licensing System and Coast Guard Vessel Documentation Center.

Last reported at 2017-Dec-10 20:48 UTC. Time now 2017-Dec-12 02:45 UTC.
Position N 36°43' W 076°05'.

Length 19 m; draft 3.3 m.

Type: Tug. MMSI: 367160060.

Date/timePositionNaut miles runAvg speedWind from/ knotsBaromVisibWave heightAir tempDewpointWater temp
2017-Dec-10 20:48N 36°43' W 076°05'7 4.2
2017-Dec-10 19:10N 36°43' W 076°14'1 4.3
2017-Dec-10 19:00N 36°43' W 076°15'0 0.4
2017-Dec-10 18:30N 36°43' W 076°15'2 4.1
2017-Dec-10 17:59N 36°44' W 076°17'2 3.9
2017-Dec-10 17:30N 36°46' W 076°18'0 0.0
2017-Dec-10 17:00N 36°46' W 076°18'2 4.5
2017-Dec-10 16:30N 36°48' W 076°17'2 4.7
2017-Dec-10 16:00N 36°50' W 076°17'1 1.6
2017-Dec-10 15:30N 36°50' W 076°16'1 2.8
2017-Dec-10 15:00N 36°50' W 076°18'2 4.0
2017-Dec-10 14:30N 36°48' W 076°17'0 0.0
2017-Dec-10 14:00N 36°49' W 076°17'0 0.0
2017-Dec-10 13:30N 36°49' W 076°17'0 0.0
2017-Dec-10 13:00N 36°49' W 076°17'0 0.0
2017-Dec-10 12:30N 36°49' W 076°17'0 0.0
2017-Dec-10 12:00N 36°49' W 076°17'0 0.0
2017-Dec-10 11:30N 36°49' W 076°17'0 0.0
2017-Dec-10 11:00N 36°49' W 076°17'0 0.0
2017-Dec-10 10:30N 36°49' W 076°17'0 0.0
2017-Dec-10 10:00N 36°49' W 076°17'0 0.0
2017-Dec-10 09:30N 36°49' W 076°17'0 0.0
2017-Dec-10 09:00N 36°48' W 076°17'0 0.0
2017-Dec-10 08:30N 36°49' W 076°17'0 0.0
2017-Dec-10 08:00N 36°49' W 076°17'0 0.0
2017-Dec-10 07:30N 36°49' W 076°17'0 0.0
2017-Dec-10 07:00N 36°49' W 076°17'0 0.0
2017-Dec-10 06:30N 36°48' W 076°17'0 0.0
2017-Dec-10 06:00N 36°49' W 076°17'0 0.0
2017-Dec-10 05:30N 36°49' W 076°17'0 0.0
2017-Dec-10 05:00N 36°49' W 076°17'0 0.0
2017-Dec-10 04:30N 36°49' W 076°17'0 0.8
2017-Dec-10 04:00N 36°48' W 076°17'0 0.1
2017-Dec-10 03:30N 36°48' W 076°17'0 0.2
2017-Dec-10 03:00N 36°48' W 076°17'0 0.2
2017-Dec-10 02:30N 36°48' W 076°17'1 1.8
2017-Dec-10 02:00N 36°49' W 076°17'3 6.8
2017-Dec-10 01:30N 36°52' W 076°20'2 2.8
2017-Dec-10 00:54N 36°54' W 076°20'2 5.4
2017-Dec-10 00:29N 36°52' W 076°19'2 3.1
2017-Dec-10 00:00N 36°51' W 076°18'3 6.1
2017-Dec-09 23:30N 36°48' W 076°18'1 2.6
2017-Dec-09 23:00N 36°49' W 076°17'2 4.7
2017-Dec-09 22:30N 36°51' W 076°18'2 4.8
2017-Dec-09 22:00N 36°53' W 076°20'1 0.9
2017-Dec-09 21:05N 36°54' W 076°21'0 0.1
2017-Dec-09 20:56N 36°54' W 076°21'0 0.0
2017-Dec-09 20:30N 36°54' W 076°21'0 0.0
2017-Dec-09 19:56N 36°54' W 076°21'0 0.0
2017-Dec-09 19:30N 36°54' W 076°21'1 2.1
2017-Dec-09 18:52N 36°53' W 076°20'2 6.4
2017-Dec-09 18:30N 36°51' W 076°18'3 5.3
2017-Dec-09 18:00N 36°48' W 076°17'0 0.6
2017-Dec-09 17:30N 36°49' W 076°17'0 0.1
2017-Dec-09 17:00N 36°49' W 076°17'0 0.0
2017-Dec-09 07:05N 36°49' W 076°17'0 0.1
2017-Dec-09 07:00N 36°49' W 076°17'2 4.6
2017-Dec-09 06:30N 36°51' W 076°18'4 7.1
2017-Dec-09 05:58N 36°54' W 076°21'0 0.9
2017-Dec-09 05:29N 36°54' W 076°20'2 4.9
2017-Dec-09 04:59N 36°52' W 076°19'0 0.6
2017-Dec-09 04:30N 36°51' W 076°19'3 6.1
2017-Dec-09 04:00N 36°48' W 076°17'0 0.6
2017-Dec-09 03:30N 36°48' W 076°17'1 1.0
2017-Dec-09 03:00N 36°49' W 076°17'3 6.2
2017-Dec-09 02:30N 36°51' W 076°19'3 6.6
2017-Dec-09 02:00N 36°55' W 076°20'2 0.1
2017-Dec-07 23:26N 36°52' W 076°20'3 6.9
2017-Dec-07 23:01N 36°50' W 076°18'2 3.9
2017-Dec-07 22:30N 36°48' W 076°17'0 0.7
2017-Dec-07 22:00N 36°48' W 076°17'0 0.0
2017-Dec-07 21:30N 36°49' W 076°17'0 0.0
2017-Dec-07 21:00N 36°48' W 076°17'0 0.0
2017-Dec-07 20:30N 36°48' W 076°17'0 0.0
2017-Dec-07 20:00N 36°48' W 076°17'0 0.9
2017-Dec-07 19:30N 36°48' W 076°17'0 0.0
2017-Dec-07 19:00N 36°48' W 076°17'0 0.0
2017-Dec-07 18:30N 36°48' W 076°17'0 0.9
2017-Dec-07 18:00N 36°49' W 076°17'0 0.7
2017-Dec-07 17:30N 36°48' W 076°17'0 0.4
2017-Dec-07 17:00N 36°48' W 076°17'0 0.3
2017-Dec-07 16:30N 36°48' W 076°17'2 3.4
2017-Dec-07 16:00N 36°47' W 076°19'1 1.6
2017-Dec-07 15:30N 36°47' W 076°18'1 2.3
2017-Dec-07 15:01N 36°48' W 076°17'0 0.4
2017-Dec-07 14:30N 36°49' W 076°17'0 0.0
2017-Dec-07 14:00N 36°49' W 076°17'2 4.2
2017-Dec-07 13:30N 36°47' W 076°19'0 0.0
2017-Dec-07 13:00N 36°47' W 076°19'1 1.1
2017-Dec-07 12:30N 36°47' W 076°18'2 3.2
2017-Dec-07 12:00N 36°48' W 076°17'0 0.0
2017-Dec-07 11:30N 36°48' W 076°17'0 0.0
2017-Dec-07 11:00N 36°48' W 076°17'0 0.0
2017-Dec-07 10:30N 36°48' W 076°17'0 0.0
2017-Dec-07 10:00N 36°48' W 076°17'0 0.0
2017-Dec-07 09:30N 36°49' W 076°17'0 0.0
2017-Dec-07 09:00N 36°48' W 076°17'0 0.0
2017-Dec-07 08:30N 36°48' W 076°17'0 0.0
2017-Dec-07 08:00N 36°48' W 076°17'0 0.0
2017-Dec-07 07:30N 36°48' W 076°17'0 0.0
2017-Dec-07 07:00N 36°48' W 076°17'0 0.0
2017-Dec-07 06:30N 36°49' W 076°17'0 0.0
2017-Dec-07 06:00N 36°48' W 076°17'0 0.0
2017-Dec-07 05:30N 36°48' W 076°17'0 0.0
2017-Dec-07 05:00N 36°48' W 076°17'0 0.0
2017-Dec-07 04:30N 36°48' W 076°17'0 0.0
2017-Dec-07 04:00N 36°48' W 076°17'0 0.0
2017-Dec-07 03:30N 36°48' W 076°17'0 0.0
2017-Dec-07 03:00N 36°48' W 076°17'0 0.0
2017-Dec-07 02:30N 36°48' W 076°17'1 1.7
2017-Dec-07 02:00N 36°49' W 076°17'2 4.3
2017-Dec-07 01:30N 36°51' W 076°19'1 1.9
2017-Dec-07 01:00N 36°52' W 076°20'2 3.4
2017-Dec-07 00:25N 36°54' W 076°21'1 2.6
2017-Dec-06 23:58N 36°53' W 076°20'2 4.0
2017-Dec-06 23:30N 36°51' W 076°19'0 0.0
2017-Dec-06 23:00N 36°51' W 076°19'1 1.1
2017-Dec-06 22:30N 36°52' W 076°19'2 4.8
2017-Dec-06 22:00N 36°54' W 076°21'0 0.0
2017-Dec-06 21:30N 36°54' W 076°21'3 6.2
2017-Dec-06 20:59N 36°51' W 076°18'  
2017-Dec-03 18:49N 36°48' W 076°17'2 5.8
2017-Dec-03 18:30N 36°50' W 076°18'3 6.3
2017-Dec-03 18:00N 36°53' W 076°20'1 1.4
2017-Dec-03 17:30N 36°52' W 076°21'2 3.5
2017-Dec-03 17:00N 36°54' W 076°20'2 4.5
2017-Dec-03 16:29N 36°56' W 076°20'2 2.2
2017-Dec-03 15:49N 36°58' W 076°20'5 0.3
2017-Dec-02 23:14N 36°53' W 076°21'0 1.8
2017-Dec-02 23:00N 36°52' W 076°21'0 0.1
2017-Dec-02 22:31N 36°52' W 076°21'0 0.1
2017-Dec-02 22:00N 36°52' W 076°21'1 2.9
2017-Dec-02 21:30N 36°52' W 076°19'4 0.2
2017-Dec-01 23:20N 36°48' W 076°17'1 3.0
2017-Dec-01 23:01N 36°48' W 076°18'1 2.0
2017-Dec-01 22:30N 36°47' W 076°18'2 3.6
2017-Dec-01 22:00N 36°45' W 076°18'2 4.4
2017-Dec-01 21:31N 36°47' W 076°18'0 0.8
2017-Dec-01 21:00N 36°47' W 076°18'1 2.0
2017-Dec-01 20:31N 36°46' W 076°18'2 3.3
2017-Dec-01 20:01N 36°45' W 076°18'1 2.9
2017-Dec-01 19:31N 36°46' W 076°18'1 2.9
2017-Dec-01 19:00N 36°48' W 076°18'0 0.0
2017-Dec-01 18:31N 36°48' W 076°18'1 1.9
2017-Dec-01 18:00N 36°49' W 076°17'0 0.0
2017-Dec-01 17:30N 36°49' W 076°17'0 0.0
2017-Dec-01 17:01N 36°49' W 076°17'0 0.0
2017-Dec-01 16:30N 36°49' W 076°17'0 0.4
2017-Dec-01 16:01N 36°48' W 076°17'1 1.6
2017-Dec-01 15:30N 36°48' W 076°18'0 0.0
2017-Dec-01 15:01N 36°48' W 076°18'1 2.3
2017-Dec-01 14:30N 36°47' W 076°19'0 0.4
2017-Dec-01 14:00N 36°47' W 076°19'0 0.0
2017-Dec-01 13:31N 36°47' W 076°19'1 1.2
2017-Dec-01 13:00N 36°47' W 076°18'1 1.3
2017-Dec-01 12:31N 36°48' W 076°18'0 0.0
2017-Dec-01 12:01N 36°48' W 076°18'0 0.0
2017-Dec-01 11:30N 36°48' W 076°18'0 0.0
2017-Dec-01 11:00N 36°48' W 076°18'0 0.0
2017-Dec-01 10:30N 36°48' W 076°18'0 0.0
2017-Dec-01 10:00N 36°48' W 076°18'0 0.0
2017-Dec-01 09:30N 36°48' W 076°18'1 2.3
2017-Dec-01 09:01N 36°47' W 076°18'1 1.8
2017-Dec-01 08:30N 36°46' W 076°18'0 0.0
2017-Dec-01 08:01N 36°46' W 076°18'2 3.5
2017-Dec-01 07:31N 36°44' W 076°18'2 4.7
2017-Dec-01 07:01N 36°43' W 076°15'0 0.2
2017-Dec-01 06:31N 36°43' W 076°15'3 4.7
2017-Dec-01 05:55N 36°43' W 076°11'5 4.2
2017-Dec-01 04:50N 36°43' W 076°06'2 4.5
2017-Dec-01 04:26N 36°42' W 076°04'2 5.0
2017-Dec-01 03:57N 36°39' W 076°04'  
Track history (hours):
 
Tides and Currents Weather Stations Pressure Air Temp Water Temp Dewpoint Dewpoint Depression Visibility Wind Speed Wind Dir Waves Ship Positions

Evelyn Doris

Owner: Intracoastal Marine, Inc., Coinjock, NC. More information available from US FCC via Universal Licensing System and Coast Guard Vessel Documentation Center.

Last reported at 2017-Dec-10 20:48 UTC. Time now 2017-Dec-12 02:45 UTC.
Position N 36°43' W 076°05'.

Length 19 m; draft 3.3 m.

Type: Tug. MMSI: 367160060.

Date/timePositionNaut miles runAvg speedWind from/ knotsBaromVisibWave heightAir tempDewpointWater temp
2017-Dec-10 20:48N 36°43' W 076°05'7 4.2
2017-Dec-10 19:10N 36°43' W 076°14'1 4.3
2017-Dec-10 19:00N 36°43' W 076°15'0 0.4
2017-Dec-10 18:30N 36°43' W 076°15'2 4.1
2017-Dec-10 17:59N 36°44' W 076°17'2 3.9
2017-Dec-10 17:30N 36°46' W 076°18'0 0.0
2017-Dec-10 17:00N 36°46' W 076°18'2 4.5
2017-Dec-10 16:30N 36°48' W 076°17'2 4.7
2017-Dec-10 16:00N 36°50' W 076°17'1 1.6
2017-Dec-10 15:30N 36°50' W 076°16'1 2.8
2017-Dec-10 15:00N 36°50' W 076°18'2 4.0
2017-Dec-10 14:30N 36°48' W 076°17'0 0.0
2017-Dec-10 14:00N 36°49' W 076°17'0 0.0
2017-Dec-10 13:30N 36°49' W 076°17'0 0.0
2017-Dec-10 13:00N 36°49' W 076°17'0 0.0
2017-Dec-10 12:30N 36°49' W 076°17'0 0.0
2017-Dec-10 12:00N 36°49' W 076°17'0 0.0
2017-Dec-10 11:30N 36°49' W 076°17'0 0.0
2017-Dec-10 11:00N 36°49' W 076°17'0 0.0
2017-Dec-10 10:30N 36°49' W 076°17'0 0.0
2017-Dec-10 10:00N 36°49' W 076°17'0 0.0
2017-Dec-10 09:30N 36°49' W 076°17'0 0.0
2017-Dec-10 09:00N 36°48' W 076°17'0 0.0
2017-Dec-10 08:30N 36°49' W 076°17'0 0.0
2017-Dec-10 08:00N 36°49' W 076°17'0 0.0
2017-Dec-10 07:30N 36°49' W 076°17'0 0.0
2017-Dec-10 07:00N 36°49' W 076°17'0 0.0
2017-Dec-10 06:30N 36°48' W 076°17'0 0.0
2017-Dec-10 06:00N 36°49' W 076°17'0 0.0
2017-Dec-10 05:30N 36°49' W 076°17'0 0.0
2017-Dec-10 05:00N 36°49' W 076°17'0 0.0
2017-Dec-10 04:30N 36°49' W 076°17'0 0.8
2017-Dec-10 04:00N 36°48' W 076°17'0 0.1
2017-Dec-10 03:30N 36°48' W 076°17'0 0.2
2017-Dec-10 03:00N 36°48' W 076°17'0 0.2
2017-Dec-10 02:30N 36°48' W 076°17'1 1.8
2017-Dec-10 02:00N 36°49' W 076°17'3 6.8
2017-Dec-10 01:30N 36°52' W 076°20'2 2.8
2017-Dec-10 00:54N 36°54' W 076°20'2 5.4
2017-Dec-10 00:29N 36°52' W 076°19'2 3.1
2017-Dec-10 00:00N 36°51' W 076°18'3 6.1
2017-Dec-09 23:30N 36°48' W 076°18'1 2.6
2017-Dec-09 23:00N 36°49' W 076°17'2 4.7
2017-Dec-09 22:30N 36°51' W 076°18'2 4.8
2017-Dec-09 22:00N 36°53' W 076°20'1 0.9
2017-Dec-09 21:05N 36°54' W 076°21'0 0.1
2017-Dec-09 20:56N 36°54' W 076°21'0 0.0
2017-Dec-09 20:30N 36°54' W 076°21'0 0.0
2017-Dec-09 19:56N 36°54' W 076°21'0 0.0
2017-Dec-09 19:30N 36°54' W 076°21'1 2.1
2017-Dec-09 18:52N 36°53' W 076°20'2 6.4
2017-Dec-09 18:30N 36°51' W 076°18'3 5.3
2017-Dec-09 18:00N 36°48' W 076°17'0 0.6
2017-Dec-09 17:30N 36°49' W 076°17'0 0.1
2017-Dec-09 17:00N 36°49' W 076°17'0 0.0
2017-Dec-09 07:05N 36°49' W 076°17'0 0.1
2017-Dec-09 07:00N 36°49' W 076°17'2 4.6
2017-Dec-09 06:30N 36°51' W 076°18'4 7.1
2017-Dec-09 05:58N 36°54' W 076°21'0 0.9
2017-Dec-09 05:29N 36°54' W 076°20'2 4.9
2017-Dec-09 04:59N 36°52' W 076°19'0 0.6
2017-Dec-09 04:30N 36°51' W 076°19'3 6.1
2017-Dec-09 04:00N 36°48' W 076°17'0 0.6
2017-Dec-09 03:30N 36°48' W 076°17'1 1.0
2017-Dec-09 03:00N 36°49' W 076°17'3 6.2
2017-Dec-09 02:30N 36°51' W 076°19'3 6.6
2017-Dec-09 02:00N 36°55' W 076°20'2 0.1
2017-Dec-07 23:26N 36°52' W 076°20'3 6.9
2017-Dec-07 23:01N 36°50' W 076°18'2 3.9
2017-Dec-07 22:30N 36°48' W 076°17'0 0.7
2017-Dec-07 22:00N 36°48' W 076°17'0 0.0
2017-Dec-07 21:30N 36°49' W 076°17'0 0.0
2017-Dec-07 21:00N 36°48' W 076°17'0 0.0
2017-Dec-07 20:30N 36°48' W 076°17'0 0.0
2017-Dec-07 20:00N 36°48' W 076°17'0 0.9
2017-Dec-07 19:30N 36°48' W 076°17'0 0.0
2017-Dec-07 19:00N 36°48' W 076°17'0 0.0
2017-Dec-07 18:30N 36°48' W 076°17'0 0.9
2017-Dec-07 18:00N 36°49' W 076°17'0 0.7
2017-Dec-07 17:30N 36°48' W 076°17'0 0.4
2017-Dec-07 17:00N 36°48' W 076°17'0 0.3
2017-Dec-07 16:30N 36°48' W 076°17'2 3.4
2017-Dec-07 16:00N 36°47' W 076°19'1 1.6
2017-Dec-07 15:30N 36°47' W 076°18'1 2.3
2017-Dec-07 15:01N 36°48' W 076°17'0 0.4
2017-Dec-07 14:30N 36°49' W 076°17'0 0.0
2017-Dec-07 14:00N 36°49' W 076°17'2 4.2
2017-Dec-07 13:30N 36°47' W 076°19'0 0.0
2017-Dec-07 13:00N 36°47' W 076°19'1 1.1
2017-Dec-07 12:30N 36°47' W 076°18'2 3.2
2017-Dec-07 12:00N 36°48' W 076°17'0 0.0
2017-Dec-07 11:30N 36°48' W 076°17'0 0.0
2017-Dec-07 11:00N 36°48' W 076°17'0 0.0
2017-Dec-07 10:30N 36°48' W 076°17'0 0.0
2017-Dec-07 10:00N 36°48' W 076°17'0 0.0
2017-Dec-07 09:30N 36°49' W 076°17'0 0.0
2017-Dec-07 09:00N 36°48' W 076°17'0 0.0
2017-Dec-07 08:30N 36°48' W 076°17'0 0.0
2017-Dec-07 08:00N 36°48' W 076°17'0 0.0
2017-Dec-07 07:30N 36°48' W 076°17'0 0.0
2017-Dec-07 07:00N 36°48' W 076°17'0 0.0
2017-Dec-07 06:30N 36°49' W 076°17'0 0.0
2017-Dec-07 06:00N 36°48' W 076°17'0 0.0
2017-Dec-07 05:30N 36°48' W 076°17'0 0.0
2017-Dec-07 05:00N 36°48' W 076°17'0 0.0
2017-Dec-07 04:30N 36°48' W 076°17'0 0.0
2017-Dec-07 04:00N 36°48' W 076°17'0 0.0
2017-Dec-07 03:30N 36°48' W 076°17'0 0.0
2017-Dec-07 03:00N 36°48' W 076°17'0 0.0
2017-Dec-07 02:30N 36°48' W 076°17'1 1.7
2017-Dec-07 02:00N 36°49' W 076°17'2 4.3
2017-Dec-07 01:30N 36°51' W 076°19'1 1.9
2017-Dec-07 01:00N 36°52' W 076°20'2 3.4
2017-Dec-07 00:25N 36°54' W 076°21'1 2.6
2017-Dec-06 23:58N 36°53' W 076°20'2 4.0
2017-Dec-06 23:30N 36°51' W 076°19'0 0.0
2017-Dec-06 23:00N 36°51' W 076°19'1 1.1
2017-Dec-06 22:30N 36°52' W 076°19'2 4.8
2017-Dec-06 22:00N 36°54' W 076°21'0 0.0
2017-Dec-06 21:30N 36°54' W 076°21'3 6.2
2017-Dec-06 20:59N 36°51' W 076°18'  
2017-Dec-03 18:49N 36°48' W 076°17'2 5.8
2017-Dec-03 18:30N 36°50' W 076°18'3 6.3
2017-Dec-03 18:00N 36°53' W 076°20'1 1.4
2017-Dec-03 17:30N 36°52' W 076°21'2 3.5
2017-Dec-03 17:00N 36°54' W 076°20'2 4.5
2017-Dec-03 16:29N 36°56' W 076°20'2 2.2
2017-Dec-03 15:49N 36°58' W 076°20'5 0.3
2017-Dec-02 23:14N 36°53' W 076°21'0 1.8
2017-Dec-02 23:00N 36°52' W 076°21'0 0.1
2017-Dec-02 22:31N 36°52' W 076°21'0 0.1
2017-Dec-02 22:00N 36°52' W 076°21'1 2.9
2017-Dec-02 21:30N 36°52' W 076°19'4 0.2
2017-Dec-01 23:20N 36°48' W 076°17'1 3.0
2017-Dec-01 23:01N 36°48' W 076°18'1 2.0
2017-Dec-01 22:30N 36°47' W 076°18'2 3.6
2017-Dec-01 22:00N 36°45' W 076°18'2 4.4
2017-Dec-01 21:31N 36°47' W 076°18'0 0.8
2017-Dec-01 21:00N 36°47' W 076°18'1 2.0
2017-Dec-01 20:31N 36°46' W 076°18'2 3.3
2017-Dec-01 20:01N 36°45' W 076°18'1 2.9
2017-Dec-01 19:31N 36°46' W 076°18'1 2.9
2017-Dec-01 19:00N 36°48' W 076°18'0 0.0
2017-Dec-01 18:31N 36°48' W 076°18'1 1.9
2017-Dec-01 18:00N 36°49' W 076°17'0 0.0
2017-Dec-01 17:30N 36°49' W 076°17'0 0.0
2017-Dec-01 17:01N 36°49' W 076°17'0 0.0
2017-Dec-01 16:30N 36°49' W 076°17'0 0.4
2017-Dec-01 16:01N 36°48' W 076°17'1 1.6
2017-Dec-01 15:30N 36°48' W 076°18'0 0.0
2017-Dec-01 15:01N 36°48' W 076°18'1 2.3
2017-Dec-01 14:30N 36°47' W 076°19'0 0.4
2017-Dec-01 14:00N 36°47' W 076°19'0 0.0
2017-Dec-01 13:31N 36°47' W 076°19'1 1.2
2017-Dec-01 13:00N 36°47' W 076°18'1 1.3
2017-Dec-01 12:31N 36°48' W 076°18'0 0.0
2017-Dec-01 12:01N 36°48' W 076°18'0 0.0
2017-Dec-01 11:30N 36°48' W 076°18'0 0.0
2017-Dec-01 11:00N 36°48' W 076°18'0 0.0
2017-Dec-01 10:30N 36°48' W 076°18'0 0.0
2017-Dec-01 10:00N 36°48' W 076°18'0 0.0
2017-Dec-01 09:30N 36°48' W 076°18'1 2.3
2017-Dec-01 09:01N 36°47' W 076°18'1 1.8
2017-Dec-01 08:30N 36°46' W 076°18'0 0.0
2017-Dec-01 08:01N 36°46' W 076°18'2 3.5
2017-Dec-01 07:31N 36°44' W 076°18'2 4.7
2017-Dec-01 07:01N 36°43' W 076°15'0 0.2
2017-Dec-01 06:31N 36°43' W 076°15'3 4.7
2017-Dec-01 05:55N 36°43' W 076°11'5 4.2
2017-Dec-01 04:50N 36°43' W 076°06'2 4.5
2017-Dec-01 04:26N 36°42' W 076°04'2 5.0
2017-Dec-01 03:57N 36°39' W 076°04'  

Dump ship's entire track history